Time;durP1;ratioP1;P1;durP2;ratioP2;P2;SDS_P1;SDS_P2;PMS_P1;PMS_P2;Temp;Humidity;BMP_temperature;BMP_pressure;BME280_temperature;BME280_humidity;BME280_pressure;Samples;Min_cycle;Max_cycle;Signal;HPM_P1;HPM_P2
2021/11/18 00:01:35;;;;;;;10.13;4.22;;;;;;;;;;5050175;28;20036;-63
2021/11/18 00:04:04;;;;;;;6.38;4.05;;;;;;;;;;5051569;28;20055;-64
2021/11/18 00:06:32;;;;;;;8.13;4.25;;;;;;;;;;5049786;28;20091;-64
2021/11/18 00:09:06;;;;;;;7.60;3.97;;;;;;;;;;5049664;28;20843;-66
2021/11/18 00:11:35;;;;;;;8.00;4.53;;;;;;;;;;5063749;28;20072;-64
2021/11/18 00:14:03;;;;;;;10.50;4.28;;;;;;;;;;5050542;28;20422;-64
2021/11/18 00:16:32;;;;;;;8.90;4.78;;;;;;;;;;5051972;28;20154;-63
2021/11/18 00:19:04;;;;;;;9.43;4.15;;;;;;;;;;5049609;28;20048;-64
2021/11/18 00:21:34;;;;;;;11.65;4.22;;;;;;;;;;5050061;28;20099;-64
2021/11/18 00:24:04;;;;;;;9.00;4.45;;;;;;;;;;5050373;28;20048;-64
2021/11/18 00:26:33;;;;;;;9.00;4.32;;;;;;;;;;5053713;28;20869;-63
2021/11/18 00:29:06;;;;;;;10.27;4.95;;;;;;;;;;5049746;28;20076;-64
2021/11/18 00:31:35;;;;;;;9.15;4.03;;;;;;;;;;5049474;28;20041;-63
2021/11/18 00:34:05;;;;;;;9.38;4.25;;;;;;;;;;5062269;28;20041;-64
2021/11/18 00:36:34;;;;;;;11.38;5.10;;;;;;;;;;5057270;28;20041;-64
2021/11/18 00:39:03;;;;;;;8.40;4.45;;;;;;;;;;5051553;28;20126;-64
2021/11/18 00:41:32;;;;;;;9.40;4.30;;;;;;;;;;5048791;28;20053;-65
2021/11/18 00:44:00;;;;;;;10.77;4.78;;;;;;;;;;5055433;28;20059;-63
2021/11/18 00:46:32;;;;;;;9.90;4.60;;;;;;;;;;5054103;28;20135;-66
2021/11/18 00:49:00;;;;;;;10.73;4.60;;;;;;;;;;5057159;28;20067;-65
2021/11/18 00:51:32;;;;;;;10.75;5.00;;;;;;;;;;5048434;28;20386;-63
2021/11/18 00:54:04;;;;;;;9.65;4.40;;;;;;;;;;5058119;28;20076;-66
2021/11/18 00:56:32;;;;;;;12.07;4.60;;;;;;;;;;5055428;28;20124;-63
2021/11/18 00:59:01;;;;;;;9.95;5.05;;;;;;;;;;5047775;28;20555;-64
2021/11/18 01:01:31;;;;;;;10.27;4.38;;;;;;;;;;5049396;28;20492;-64
2021/11/18 01:04:00;;;;;;;10.90;4.88;;;;;;;;;;5052658;28;20451;-64
2021/11/18 01:06:30;;;;;;;8.05;3.60;;;;;;;;;;5052706;28;20514;-64
2021/11/18 01:08:58;;;;;;;9.00;4.90;;;;;;;;;;5046543;28;20389;-65
2021/11/18 01:11:28;;;;;;;10.45;4.90;;;;;;;;;;5048705;28;20083;-63
2021/11/18 01:13:57;;;;;;;8.63;4.32;;;;;;;;;;5048546;28;20482;-66
2021/11/18 01:16:26;;;;;;;11.05;4.35;;;;;;;;;;5050662;28;20072;-64
2021/11/18 01:18:55;;;;;;;9.98;4.57;;;;;;;;;;5048615;28;20110;-64
2021/11/18 01:21:24;;;;;;;10.93;4.57;;;;;;;;;;5047886;28;20405;-64
2021/11/18 01:23:54;;;;;;;9.07;4.47;;;;;;;;;;5049138;28;20045;-65
2021/11/18 01:26:23;;;;;;;10.95;5.03;;;;;;;;;;5050238;28;20160;-64
2021/11/18 01:29:07;;;;;;;4.05;1.65;;;;;;;;;;2200183;28;10023826;-64
2021/11/18 01:31:35;;;;;;;8.68;4.30;;;;;;;;;;3654798;28;10001522;-63
2021/11/18 01:34:04;;;;;;;8.70;4.15;;;;;;;;;;5047774;28;20114;-64
2021/11/18 01:36:32;;;;;;;9.55;4.45;;;;;;;;;;5049343;28;20095;-66
2021/11/18 01:39:02;;;;;;;7.75;4.32;;;;;;;;;;5043382;28;20559;-68
2021/11/18 01:41:31;;;;;;;6.93;4.10;;;;;;;;;;5039110;28;20132;-65
2021/11/18 01:44:00;;;;;;;9.63;4.32;;;;;;;;;;5053468;28;20131;-66
2021/11/18 01:46:29;;;;;;;10.95;4.43;;;;;;;;;;5064492;28;20098;-65
2021/11/18 01:48:58;;;;;;;8.13;3.97;;;;;;;;;;5055377;28;20128;-64
2021/11/18 01:51:28;;;;;;;9.93;4.82;;;;;;;;;;5055749;28;20512;-64
2021/11/18 01:53:56;;;;;;;9.10;4.75;;;;;;;;;;5049384;28;20239;-64
2021/11/18 01:56:27;;;;;;;13.27;5.35;;;;;;;;;;5049134;28;20045;-63
2021/11/18 01:58:57;;;;;;;11.45;4.82;;;;;;;;;;5049754;28;20556;-63
2021/11/18 02:01:25;;;;;;;9.77;4.50;;;;;;;;;;5058744;28;20235;-63
2021/11/18 02:03:54;;;;;;;8.52;4.95;;;;;;;;;;5051588;28;20045;-63
2021/11/18 02:06:24;;;;;;;9.85;4.65;;;;;;;;;;5046409;28;20124;-64
2021/11/18 02:08:52;;;;;;;12.05;4.90;;;;;;;;;;5052022;28;20166;-64
2021/11/18 02:11:24;;;;;;;12.02;5.10;;;;;;;;;;5049294;28;20067;-64
2021/11/18 02:13:55;;;;;;;10.00;4.82;;;;;;;;;;5058994;28;20132;-64
2021/11/18 02:16:24;;;;;;;9.57;4.47;;;;;;;;;;5055107;28;20107;-65
2021/11/18 02:18:52;;;;;;;9.35;4.43;;;;;;;;;;5049812;28;20064;-64
2021/11/18 02:21:23;;;;;;;10.55;5.00;;;;;;;;;;5050938;28;20449;-64
2021/11/18 02:23:53;;;;;;;14.57;4.78;;;;;;;;;;5057158;28;20414;-64
2021/11/18 02:26:22;;;;;;;11.25;5.32;;;;;;;;;;5054973;28;20477;-65
2021/11/18 02:28:51;;;;;;;9.48;5.00;;;;;;;;;;5058079;28;20053;-66
2021/11/18 02:31:22;;;;;;;10.73;4.88;;;;;;;;;;5046117;28;20219;-67
2021/11/18 02:33:51;;;;;;;7.22;4.13;;;;;;;;;;5060336;28;20087;-64
2021/11/18 02:36:19;;;;;;;11.10;4.93;;;;;;;;;;5051086;28;20132;-65
2021/11/18 02:38:49;;;;;;;8.95;4.47;;;;;;;;;;5050449;28;20076;-64
2021/11/18 02:41:18;;;;;;;9.65;4.72;;;;;;;;;;5051753;28;20135;-64
2021/11/18 02:43:47;;;;;;;9.32;4.40;;;;;;;;;;5051735;28;20156;-65
2021/11/18 02:46:15;;;;;;;10.43;3.97;;;;;;;;;;5051308;28;20049;-63
2021/11/18 02:48:44;;;;;;;8.48;4.20;;;;;;;;;;5052241;28;20045;-63
2021/11/18 02:51:14;;;;;;;9.60;3.95;;;;;;;;;;5061074;28;20123;-64
2021/11/18 02:53:43;;;;;;;8.43;4.50;;;;;;;;;;5064293;28;20088;-64
2021/11/18 02:56:13;;;;;;;9.57;4.20;;;;;;;;;;5054631;28;20559;-64
2021/11/18 02:58:42;;;;;;;7.35;3.72;;;;;;;;;;5055234;28;20123;-64
2021/11/18 03:01:11;;;;;;;7.22;3.97;;;;;;;;;;5050344;28;20045;-64
2021/11/18 03:03:40;;;;;;;8.77;4.30;;;;;;;;;;5052356;28;20041;-64
2021/11/18 03:06:10;;;;;;;7.63;3.65;;;;;;;;;;5051049;28;20451;-64
2021/11/18 03:08:39;;;;;;;7.60;3.88;;;;;;;;;;5055734;28;20052;-64
2021/11/18 03:11:08;;;;;;;9.30;4.10;;;;;;;;;;5054952;28;20088;-64
2021/11/18 03:13:38;;;;;;;6.57;3.58;;;;;;;;;;5050807;28;20300;-64
2021/11/18 03:16:07;;;;;;;7.90;3.88;;;;;;;;;;5050359;28;20045;-64
2021/11/18 03:18:35;;;;;;;6.30;3.17;;;;;;;;;;5054215;28;20495;-66
2021/11/18 03:21:05;;;;;;;7.40;3.88;;;;;;;;;;5042771;28;20077;-64
2021/11/18 03:23:33;;;;;;;9.30;4.55;;;;;;;;;;5051923;28;20128;-64
2021/11/18 03:26:02;;;;;;;8.65;4.07;;;;;;;;;;5059481;28;20472;-64
2021/11/18 03:28:34;;;;;;;8.20;3.85;;;;;;;;;;5050768;28;20492;-66
2021/11/18 03:31:04;;;;;;;8.13;3.92;;;;;;;;;;5050237;28;20154;-64
2021/11/18 03:33:35;;;;;;;7.63;3.35;;;;;;;;;;5053825;28;20489;-64
2021/11/18 03:36:03;;;;;;;9.00;4.07;;;;;;;;;;5054798;28;20143;-65
2021/11/18 03:38:32;;;;;;;8.73;4.53;;;;;;;;;;5055118;28;20044;-65
2021/11/18 03:41:03;;;;;;;10.95;4.32;;;;;;;;;;5051698;28;20563;-64
2021/11/18 03:43:33;;;;;;;7.47;4.20;;;;;;;;;;5052155;28;20364;-65
2021/11/18 03:46:02;;;;;;;8.98;4.60;;;;;;;;;;5051390;28;20084;-64
2021/11/18 03:48:33;;;;;;;9.52;4.68;;;;;;;;;;5062246;28;20563;-67
2021/11/18 03:51:02;;;;;;;10.60;5.32;;;;;;;;;;5059406;28;20484;-64
2021/11/18 03:53:33;;;;;;;10.13;5.30;;;;;;;;;;5050424;28;20037;-64
2021/11/18 03:56:02;;;;;;;11.27;4.85;;;;;;;;;;5050674;28;20488;-65
2021/11/18 03:58:30;;;;;;;8.40;4.47;;;;;;;;;;5050867;28;20152;-68
2021/11/18 04:00:59;;;;;;;10.35;5.05;;;;;;;;;;5052185;28;20045;-64
2021/11/18 04:03:28;;;;;;;10.02;5.03;;;;;;;;;;5056255;28;20065;-64
2021/11/18 04:06:01;;;;;;;10.43;5.00;;;;;;;;;;5064024;28;20106;-63
2021/11/18 04:08:29;;;;;;;10.70;4.68;;;;;;;;;;5057692;28;20049;-64
2021/11/18 04:11:00;;;;;;;8.55;4.82;;;;;;;;;;5058787;28;20041;-64
2021/11/18 04:13:28;;;;;;;8.82;4.72;;;;;;;;;;5050167;28;20435;-64
2021/11/18 04:15:57;;;;;;;10.60;4.60;;;;;;;;;;5060609;28;20052;-64
2021/11/18 04:18:28;;;;;;;10.70;4.97;;;;;;;;;;5051578;28;20049;-64
2021/11/18 04:20:56;;;;;;;9.65;4.50;;;;;;;;;;5046538;28;20063;-65
2021/11/18 04:23:27;;;;;;;12.32;6.30;;;;;;;;;;5050098;28;20041;-64
2021/11/18 04:25:56;;;;;;;10.18;5.07;;;;;;;;;;5051084;28;20045;-64
2021/11/18 04:28:24;;;;;;;12.00;4.90;;;;;;;;;;5053337;28;20045;-67
2021/11/18 04:30:54;;;;;;;9.40;4.82;;;;;;;;;;5054949;28;20114;-64
2021/11/18 04:33:25;;;;;;;12.25;5.60;;;;;;;;;;5056858;28;20048;-65
2021/11/18 04:35:54;;;;;;;11.35;5.45;;;;;;;;;;5049794;28;20057;-65
2021/11/18 04:38:23;;;;;;;10.68;5.45;;;;;;;;;;5049260;28;20083;-63
2021/11/18 04:40:53;;;;;;;9.65;4.72;;;;;;;;;;5048648;28;20148;-64
2021/11/18 04:43:22;;;;;;;11.65;5.53;;;;;;;;;;5055356;28;20123;-65
2021/11/18 04:45:51;;;;;;;11.82;5.70;;;;;;;;;;5062108;28;20048;-64
2021/11/18 04:48:19;;;;;;;11.52;5.13;;;;;;;;;;5055917;28;20036;-64
2021/11/18 04:50:48;;;;;;;9.68;4.53;;;;;;;;;;5050163;28;20076;-65
2021/11/18 04:53:16;;;;;;;10.52;5.03;;;;;;;;;;5051377;28;20044;-64
2021/11/18 04:55:45;;;;;;;10.15;5.13;;;;;;;;;;5053933;28;20147;-65
2021/11/18 04:58:15;;;;;;;9.43;4.90;;;;;;;;;;5048163;28;20400;-64
2021/11/18 05:00:47;;;;;;;11.80;5.18;;;;;;;;;;5046388;28;20055;-64
2021/11/18 05:03:16;;;;;;;11.52;5.53;;;;;;;;;;5044457;28;20037;-63
2021/11/18 05:05:45;;;;;;;11.30;5.65;;;;;;;;;;5050491;28;20396;-64
2021/11/18 05:08:13;;;;;;;14.75;5.63;;;;;;;;;;5049230;28;20453;-65
2021/11/18 05:10:42;;;;;;;11.52;5.15;;;;;;;;;;5048861;28;20135;-63
2021/11/18 05:13:11;;;;;;;13.27;6.10;;;;;;;;;;5048261;28;20488;-64
2021/11/18 05:15:42;;;;;;;13.07;5.85;;;;;;;;;;5049058;28;20452;-63
2021/11/18 05:18:11;;;;;;;11.40;5.70;;;;;;;;;;5049979;28;20114;-66
2021/11/18 05:20:39;;;;;;;10.98;5.53;;;;;;;;;;5048605;28;20495;-64
2021/11/18 05:23:08;;;;;;;11.60;5.43;;;;;;;;;;5047457;28;20115;-64
2021/11/18 05:25:37;;;;;;;10.50;4.80;;;;;;;;;;5049104;28;20052;-64
2021/11/18 05:28:07;;;;;;;11.68;5.53;;;;;;;;;;5045686;28;20053;-64
2021/11/18 05:30:36;;;;;;;13.70;5.30;;;;;;;;;;5042461;28;20123;-64
2021/11/18 05:33:07;;;;;;;9.38;4.28;;;;;;;;;;5047901;28;20083;-64
2021/11/18 05:35:36;;;;;;;12.40;6.05;;;;;;;;;;5047151;28;20135;-66
2021/11/18 05:38:05;;;;;;;11.05;5.57;;;;;;;;;;5048865;28;20139;-65
2021/11/18 05:40:35;;;;;;;13.40;5.93;;;;;;;;;;5047411;28;20049;-65
2021/11/18 05:43:03;;;;;;;10.85;5.80;;;;;;;;;;5047374;28;20108;-64
2021/11/18 05:45:33;;;;;;;10.90;5.55;;;;;;;;;;5046871;28;20491;-65
2021/11/18 05:48:01;;;;;;;11.38;5.07;;;;;;;;;;5043082;28;20053;-66
2021/11/18 05:50:31;;;;;;;9.82;5.40;;;;;;;;;;5048680;28;20140;-64
2021/11/18 05:53:00;;;;;;;12.20;5.28;;;;;;;;;;5050696;28;20106;-65
2021/11/18 05:55:29;;;;;;;13.77;5.60;;;;;;;;;;5057862;28;20044;-64
2021/11/18 05:57:58;;;;;;;17.15;5.63;;;;;;;;;;5061197;28;20489;-65
2021/11/18 06:00:27;;;;;;;13.23;5.25;;;;;;;;;;5054820;28;20135;-66
2021/11/18 06:02:56;;;;;;;13.23;5.93;;;;;;;;;;5044508;28;20045;-64
2021/11/18 06:05:25;;;;;;;16.10;5.85;;;;;;;;;;5068501;28;20058;-65
2021/11/18 06:07:55;;;;;;;15.55;6.20;;;;;;;;;;5052334;28;20077;-65
2021/11/18 06:10:27;;;;;;;12.82;5.90;;;;;;;;;;5049025;28;20056;-65
2021/11/18 06:12:56;;;;;;;13.82;6.35;;;;;;;;;;5049366;28;20530;-66
2021/11/18 06:15:25;;;;;;;12.52;5.20;;;;;;;;;;5049217;28;20167;-65
2021/11/18 06:17:53;;;;;;;16.27;6.00;;;;;;;;;;5035548;28;20542;-65
2021/11/18 06:20:22;;;;;;;12.73;5.57;;;;;;;;;;5048069;28;20123;-64
2021/11/18 06:22:53;;;;;;;12.45;5.88;;;;;;;;;;5047791;28;20049;-64
2021/11/18 06:25:24;;;;;;;11.85;5.68;;;;;;;;;;5052576;28;20086;-64
2021/11/18 06:27:52;;;;;;;14.23;5.55;;;;;;;;;;5044188;28;20045;-64
2021/11/18 06:30:21;;;;;;;11.85;5.15;;;;;;;;;;5046529;28;20059;-66
2021/11/18 06:32:50;;;;;;;11.27;5.18;;;;;;;;;;5060121;28;20492;-65
2021/11/18 06:35:19;;;;;;;15.50;6.70;;;;;;;;;;5048637;28;20063;-65
2021/11/18 06:37:48;;;;;;;10.27;5.65;;;;;;;;;;5048595;28;20060;-67
2021/11/18 06:40:18;;;;;;;13.55;6.22;;;;;;;;;;5048225;28;20349;-66
2021/11/18 06:42:48;;;;;;;12.98;5.63;;;;;;;;;;5049098;28;20167;-65
2021/11/18 06:45:23;;;;;;;12.50;5.78;;;;;;;;;;5048105;28;20080;-64
2021/11/18 06:47:52;;;;;;;13.88;5.78;;;;;;;;;;5057275;28;20064;-64
2021/11/18 06:50:21;;;;;;;10.70;5.55;;;;;;;;;;5044078;28;20046;-65
2021/11/18 06:52:50;;;;;;;14.48;5.75;;;;;;;;;;5056095;28;20148;-65
2021/11/18 06:55:18;;;;;;;12.70;5.95;;;;;;;;;;5048735;28;20145;-64
2021/11/18 06:57:49;;;;;;;11.60;5.85;;;;;;;;;;5055932;28;20836;-65
2021/11/18 07:00:18;;;;;;;12.13;5.88;;;;;;;;;;5062159;28;20071;-67
2021/11/18 07:02:55;;;;;;;11.70;5.35;;;;;;;;;;5048747;28;20165;-66
2021/11/18 07:05:24;;;;;;;12.32;5.80;;;;;;;;;;5048647;28;20041;-64
2021/11/18 07:07:52;;;;;;;13.68;5.63;;;;;;;;;;5050008;28;20057;-65
2021/11/18 07:10:22;;;;;;;11.15;5.47;;;;;;;;;;5052432;28;20059;-67
2021/11/18 07:12:54;;;;;;;13.20;5.53;;;;;;;;;;5049190;28;20110;-66
2021/11/18 07:15:24;;;;;;;13.48;5.75;;;;;;;;;;5048337;28;20489;-66
2021/11/18 07:17:54;;;;;;;12.65;5.88;;;;;;;;;;5048548;28;20366;-66
2021/11/18 07:20:22;;;;;;;11.73;5.68;;;;;;;;;;5042006;28;20615;-64
2021/11/18 07:22:54;;;;;;;12.65;5.07;;;;;;;;;;5042295;28;20053;-64
2021/11/18 07:25:28;;;;;;;11.02;5.30;;;;;;;;;;5041107;28;20072;-64
2021/11/18 07:27:59;;;;;;;11.25;5.38;;;;;;;;;;5043066;28;20594;-64
2021/11/18 07:30:28;;;;;;;10.93;5.10;;;;;;;;;;5043172;28;20094;-64
2021/11/18 07:33:00;;;;;;;11.90;4.97;;;;;;;;;;5050298;28;20049;-64
2021/11/18 07:35:29;;;;;;;11.93;4.97;;;;;;;;;;5051789;28;20045;-63
2021/11/18 07:37:58;;;;;;;13.38;5.53;;;;;;;;;;5062715;28;20045;-64
2021/11/18 07:40:26;;;;;;;14.63;6.53;;;;;;;;;;5052596;28;20511;-65
2021/11/18 07:42:56;;;;;;;12.52;5.30;;;;;;;;;;5044439;28;20092;-63
2021/11/18 07:45:27;;;;;;;10.70;5.03;;;;;;;;;;5050222;28;20123;-62
2021/11/18 07:47:55;;;;;;;12.65;5.13;;;;;;;;;;5042155;28;20456;-63
2021/11/18 07:50:25;;;;;;;12.07;5.18;;;;;;;;;;5048756;28;20052;-64
2021/11/18 07:52:54;;;;;;;10.57;5.00;;;;;;;;;;5049302;28;20107;-63
2021/11/18 07:55:23;;;;;;;8.05;4.53;;;;;;;;;;5049619;28;20061;-66
2021/11/18 07:57:52;;;;;;;11.00;5.30;;;;;;;;;;5049380;28;20060;-63
2021/11/18 08:00:22;;;;;;;10.73;4.80;;;;;;;;;;5047070;28;20037;-63
2021/11/18 08:02:55;;;;;;;11.18;4.70;;;;;;;;;;5049289;28;20476;-65
2021/11/18 08:05:26;;;;;;;10.05;5.65;;;;;;;;;;5051001;28;20051;-64
2021/11/18 08:07:58;;;;;;;10.63;5.15;;;;;;;;;;5057103;28;20055;-63
2021/11/18 08:10:28;;;;;;;12.32;5.05;;;;;;;;;;5043083;28;20118;-65
2021/11/18 08:12:57;;;;;;;9.43;4.97;;;;;;;;;;5049916;28;20045;-66
2021/11/18 08:15:29;;;;;;;10.73;4.65;;;;;;;;;;5054209;28;20538;-64
2021/11/18 08:17:59;;;;;;;9.63;5.20;;;;;;;;;;5054494;28;20045;-64
2021/11/18 08:20:30;;;;;;;10.90;4.78;;;;;;;;;;5053841;28;20052;-63
2021/11/18 08:22:59;;;;;;;9.70;4.63;;;;;;;;;;5048370;28;20091;-63
2021/11/18 08:25:29;;;;;;;10.98;5.13;;;;;;;;;;5042833;28;20132;-63
2021/11/18 08:27:58;;;;;;;11.00;5.28;;;;;;;;;;5052479;28;20049;-64
2021/11/18 08:30:29;;;;;;;12.02;5.22;;;;;;;;;;5049743;28;20113;-64
2021/11/18 08:33:04;;;;;;;10.63;5.20;;;;;;;;;;5055322;28;20056;-63
2021/11/18 08:35:36;;;;;;;12.82;4.95;;;;;;;;;;5061677;28;20051;-64
2021/11/18 08:38:09;;;;;;;15.75;5.80;;;;;;;;;;5058041;28;20517;-64
2021/11/18 08:40:39;;;;;;;12.30;5.35;;;;;;;;;;5049887;28;20048;-64
2021/11/18 08:43:08;;;;;;;11.43;4.80;;;;;;;;;;5040716;28;20048;-65
2021/11/18 08:45:37;;;;;;;14.90;5.70;;;;;;;;;;5044739;28;20471;-63
2021/11/18 08:48:08;;;;;;;12.05;5.10;;;;;;;;;;5047968;28;20402;-65
2021/11/18 08:50:38;;;;;;;11.15;5.03;;;;;;;;;;5031166;28;20053;-63
2021/11/18 08:53:07;;;;;;;9.27;4.55;;;;;;;;;;5067746;28;20048;-63
2021/11/18 08:55:37;;;;;;;13.65;4.65;;;;;;;;;;5047707;28;20095;-64
2021/11/18 08:58:06;;;;;;;10.40;5.05;;;;;;;;;;5049506;28;20227;-63
2021/11/18 09:00:38;;;;;;;10.40;5.03;;;;;;;;;;5028050;28;20132;-63
2021/11/18 09:03:09;;;;;;;8.43;4.85;;;;;;;;;;5053082;28;20056;-63
2021/11/18 09:05:39;;;;;;;12.82;5.55;;;;;;;;;;5048972;28;20059;-64
2021/11/18 09:08:09;;;;;;;10.60;4.72;;;;;;;;;;5054211;28;20127;-63
2021/11/18 09:10:38;;;;;;;13.32;4.88;;;;;;;;;;5054940;28;20079;-63
2021/11/18 09:13:08;;;;;;;11.35;4.97;;;;;;;;;;5051674;28;20048;-63
2021/11/18 09:15:40;;;;;;;10.68;4.65;;;;;;;;;;5053464;28;20049;-66
2021/11/18 09:18:11;;;;;;;13.00;5.18;;;;;;;;;;5047704;28;20049;-65
2021/11/18 09:20:40;;;;;;;12.07;4.97;;;;;;;;;;5057190;28;20219;-63
2021/11/18 09:23:10;;;;;;;10.13;5.28;;;;;;;;;;5058033;28;20068;-64
2021/11/18 09:25:42;;;;;;;10.90;5.20;;;;;;;;;;5051696;28;20381;-66
2021/11/18 09:28:16;;;;;;;10.90;5.55;;;;;;;;;;5045347;28;21335;-66
2021/11/18 09:30:46;;;;;;;10.47;5.20;;;;;;;;;;5057872;28;20436;-64
2021/11/18 09:33:17;;;;;;;10.52;4.70;;;;;;;;;;5058149;28;20639;-66
2021/11/18 09:35:48;;;;;;;11.60;5.25;;;;;;;;;;5060890;28;20045;-64
2021/11/18 09:38:18;;;;;;;11.70;4.20;;;;;;;;;;5056977;28;20049;-65
2021/11/18 09:40:49;;;;;;;7.28;4.05;;;;;;;;;;5061211;28;20455;-65
2021/11/18 09:43:40;;;;;;;10.10;4.65;;;;;;;;;;5072050;28;20048;-66
2021/11/18 09:46:14;;;;;;;7.90;4.40;;;;;;;;;;5049434;28;20555;-64
2021/11/18 09:49:04;;;;;;;10.95;4.78;;;;;;;;;;5053285;28;20568;-63
2021/11/18 09:51:50;;;;;;;9.45;5.10;;;;;;;;;;5042865;28;20049;-63
2021/11/18 09:54:31;;;;;;;9.30;4.63;;;;;;;;;;5031011;28;20041;-63
2021/11/18 09:57:10;;;;;;;8.63;4.20;;;;;;;;;;5063877;28;20049;-63
2021/11/18 09:59:44;;;;;;;9.70;5.07;;;;;;;;;;5054261;28;20049;-64
2021/11/18 10:02:23;;;;;;;10.20;4.88;;;;;;;;;;5046450;28;20095;-65
2021/11/18 10:04:54;;;;;;;9.80;4.47;;;;;;;;;;5064443;28;20159;-64
2021/11/18 10:07:25;;;;;;;10.27;4.88;;;;;;;;;;5060633;28;20047;-64
2021/11/18 10:10:05;;;;;;;10.15;4.35;;;;;;;;;;5056239;28;20068;-64
2021/11/18 10:12:41;;;;;;;9.25;4.38;;;;;;;;;;5053461;28;20187;-64
2021/11/18 10:15:14;;;;;;;9.68;4.70;;;;;;;;;;5048228;28;20053;-65
2021/11/18 10:17:49;;;;;;;9.63;4.53;;;;;;;;;;5054762;28;20110;-63
2021/11/18 10:20:23;;;;;;;9.60;5.10;;;;;;;;;;5057148;28;20143;-65
2021/11/18 10:22:54;;;;;;;10.77;5.07;;;;;;;;;;5064998;28;20131;-64
2021/11/18 10:25:35;;;;;;;12.05;4.78;;;;;;;;;;5059131;28;20053;-67
2021/11/18 10:28:20;;;;;;;9.70;4.80;;;;;;;;;;5038740;28;20041;-64
2021/11/18 10:30:54;;;;;;;10.98;4.45;;;;;;;;;;5051927;28;20049;-65
2021/11/18 10:33:28;;;;;;;9.37;4.27;;;;;;;;;;5053766;28;20094;-64
2021/11/18 10:36:08;;;;;;;10.82;4.88;;;;;;;;;;5054310;28;20053;-66
2021/11/18 10:38:39;;;;;;;11.10;5.05;;;;;;;;;;5064589;28;20053;-65
2021/11/18 10:41:17;;;;;;;8.63;4.25;;;;;;;;;;5049928;28;20047;-66
2021/11/18 10:44:03;;;;;;;10.68;4.25;;;;;;;;;;5049926;28;20234;-64
2021/11/18 10:46:31;;;;;;;;;;;;;;;;;;5049905;28;20052;-64
2021/11/18 10:49:02;;;;;;;7.68;3.72;;;;;;;;;;5043000;28;19924;-64
2021/11/18 10:51:41;;;;;;;9.15;4.28;;;;;;;;;;5053409;28;20049;-64
2021/11/18 10:54:12;;;;;;;11.05;4.97;;;;;;;;;;5049633;28;20548;-64
2021/11/18 10:56:49;;;;;;;11.63;4.32;;;;;;;;;;5049908;28;20512;-66
2021/11/18 10:59:21;;;;;;;9.95;3.97;;;;;;;;;;5051797;28;20044;-66
2021/11/18 11:01:51;;;;;;;8.70;3.90;;;;;;;;;;5052830;28;20048;-64
2021/11/18 11:04:36;;;;;;;8.07;3.85;;;;;;;;;;5030103;28;20430;-64
2021/11/18 11:07:07;;;;;;;8.43;4.47;;;;;;;;;;5049558;28;20107;-64
2021/11/18 11:09:37;;;;;;;7.70;3.83;;;;;;;;;;5051462;28;20551;-66
2021/11/18 11:12:12;;;;;;;8.02;3.70;;;;;;;;;;5039990;28;20055;-64
2021/11/18 11:14:54;;;;;;;6.30;3.38;;;;;;;;;;5052553;28;20044;-64
2021/11/18 11:17:37;;;;;;;7.18;3.75;;;;;;;;;;5050175;28;20056;-64
2021/11/18 11:20:09;;;;;;;9.00;3.60;;;;;;;;;;5048910;28;20045;-65
2021/11/18 11:22:41;;;;;;;7.63;3.45;;;;;;;;;;5046726;28;20045;-67
2021/11/18 11:25:16;;;;;;;9.27;4.18;;;;;;;;;;5051247;28;20416;-63
2021/11/18 11:27:46;;;;;;;;;;;;;;;;;;5049353;28;20053;-63
2021/11/18 11:30:21;;;;;;;10.32;3.53;;;;;;;;;;5053025;28;19954;-65
2021/11/18 11:32:49;;;;;;;;;;;;;;;;;;5051772;28;20413;-65
2021/11/18 11:35:25;;;;;;;8.60;3.40;;;;;;;;;;5054197;28;20344;-65
2021/11/18 11:38:06;;;;;;;7.70;3.80;;;;;;;;;;5060138;28;20088;-63
2021/11/18 11:40:38;;;;;;;6.07;3.08;;;;;;;;;;5048703;28;20053;-64
2021/11/18 11:43:27;;;;;;;4.65;2.72;;;;;;;;;;5049801;28;20048;-64
2021/11/18 11:45:59;;;;;;;5.88;2.85;;;;;;;;;;5064269;28;20087;-64
2021/11/18 11:48:38;;;;;;;5.05;2.85;;;;;;;;;;5048132;28;20048;-64
2021/11/18 11:51:15;;;;;;;5.90;2.92;;;;;;;;;;5047771;28;20052;-64
2021/11/18 11:53:52;;;;;;;8.68;2.78;;;;;;;;;;5063324;28;20052;-64
2021/11/18 11:56:27;;;;;;;4.32;2.45;;;;;;;;;;5059637;28;20044;-64
2021/11/18 11:59:01;;;;;;;5.10;2.80;;;;;;;;;;5048648;28;20571;-64
2021/11/18 12:01:35;;;;;;;7.10;2.88;;;;;;;;;;5049304;28;20128;-63
2021/11/18 12:04:05;;;;;;;4.75;2.28;;;;;;;;;;5047598;28;20148;-63
2021/11/18 12:06:40;;;;;;;3.88;2.25;;;;;;;;;;5038919;28;20041;-63
2021/11/18 12:09:16;;;;;;;6.22;1.88;;;;;;;;;;5046160;28;20049;-65
2021/11/18 12:11:48;;;;;;;4.32;2.25;;;;;;;;;;5048927;28;20386;-64
2021/11/18 12:14:23;;;;;;;5.43;2.20;;;;;;;;;;5054024;28;20128;-64
2021/11/18 12:17:06;;;;;;;6.25;2.47;;;;;;;;;;5049680;28;20124;-64
2021/11/18 12:19:44;;;;;;;7.13;3.42;;;;;;;;;;5042071;28;20483;-63
2021/11/18 12:22:33;;;;;;;7.22;3.17;;;;;;;;;;5048333;28;20053;-65
2021/11/18 12:25:06;;;;;;;6.45;3.22;;;;;;;;;;5053589;28;20049;-64
2021/11/18 12:27:36;;;;;;;4.60;3.00;;;;;;;;;;5054424;28;20135;-64
2021/11/18 12:30:20;;;;;;;5.75;2.50;;;;;;;;;;5054028;28;20507;-64
2021/11/18 12:32:57;;;;;;;7.57;2.90;;;;;;;;;;5033525;28;20065;-65
2021/11/18 12:35:44;;;;;;;9.07;3.85;;;;;;;;;;5051764;28;20076;-66
2021/11/18 12:38:31;;;;;;;6.07;3.47;;;;;;;;;;5044205;28;20041;-64
2021/11/18 12:41:12;;;;;;;5.75;2.83;;;;;;;;;;5041615;28;20393;-64
2021/11/18 12:43:58;;;;;;;5.30;2.65;;;;;;;;;;5055597;28;20483;-63
2021/11/18 12:46:33;;;;;;;7.03;3.08;;;;;;;;;;5046369;28;20536;-64
2021/11/18 12:49:22;;;;;;;6.72;3.70;;;;;;;;;;5054048;28;20133;-64
2021/11/18 12:52:09;;;;;;;6.50;3.53;;;;;;;;;;5049546;28;20052;-64
2021/11/18 12:54:44;;;;;;;6.40;3.13;;;;;;;;;;5038289;28;20057;-64
2021/11/18 12:57:27;;;;;;;8.25;3.55;;;;;;;;;;5057370;28;20041;-64
2021/11/18 12:59:58;;;;;;;6.28;3.30;;;;;;;;;;5051099;28;20088;-65
2021/11/18 13:02:54;;;;;;;5.82;2.78;;;;;;;;;;5045729;28;20136;-64
2021/11/18 13:05:42;;;;;;;6.47;2.58;;;;;;;;;;5012985;28;20049;-65
2021/11/18 13:08:26;;;;;;;9.25;3.70;;;;;;;;;;5035652;28;20471;-64
2021/11/18 13:10:55;;;;;;;5.28;2.28;;;;;;;;;;5056266;28;20134;-66
2021/11/18 13:13:30;;;;;;;4.72;2.45;;;;;;;;;;5045120;28;20051;-64
2021/11/18 13:16:11;;;;;;;7.32;2.78;;;;;;;;;;5042793;28;20496;-65
2021/11/18 13:18:52;;;;;;;7.13;2.53;;;;;;;;;;5037266;28;20488;-64
2021/11/18 13:21:22;;;;;;;4.82;2.20;;;;;;;;;;5027937;28;20045;-65
2021/11/18 13:23:59;;;;;;;4.35;2.22;;;;;;;;;;5041841;28;20140;-65
2021/11/18 13:26:33;;;;;;;7.10;2.50;;;;;;;;;;5065618;28;20509;-64
2021/11/18 13:29:07;;;;;;;5.40;2.78;;;;;;;;;;5056782;28;20094;-64
2021/11/18 13:31:38;;;;;;;4.68;2.33;;;;;;;;;;5062145;28;20523;-64
2021/11/18 13:34:14;;;;;;;6.45;2.50;;;;;;;;;;5048640;28;20329;-64
2021/11/18 13:36:44;;;;;;;3.47;2.08;;;;;;;;;;5043171;28;20049;-64
2021/11/18 13:39:19;;;;;;;5.90;2.38;;;;;;;;;;5044113;28;20148;-65
2021/11/18 13:41:53;;;;;;;6.60;2.42;;;;;;;;;;5048886;28;20045;-65
2021/11/18 13:44:29;;;;;;;3.58;1.90;;;;;;;;;;5009660;28;20049;-66
2021/11/18 13:47:06;;;;;;;5.00;2.30;;;;;;;;;;5045541;28;20091;-67
2021/11/18 13:49:37;;;;;;;4.35;2.20;;;;;;;;;;5045474;28;20044;-64
2021/11/18 13:52:14;;;;;;;4.28;2.45;;;;;;;;;;5042140;28;20053;-67
2021/11/18 13:54:50;;;;;;;5.97;2.10;;;;;;;;;;5044312;28;20056;-68
2021/11/18 13:57:21;;;;;;;3.97;2.08;;;;;;;;;;5047681;28;20052;-66
2021/11/18 13:59:57;;;;;;;3.72;2.38;;;;;;;;;;5048239;28;20053;-65
2021/11/18 14:02:28;;;;;;;3.97;2.05;;;;;;;;;;5047949;28;20049;-66
2021/11/18 14:05:00;;;;;;;5.18;2.30;;;;;;;;;;5048435;28;20044;-66
2021/11/18 14:07:47;;;;;;;3.05;1.88;;;;;;;;;;5043508;28;20056;-65
2021/11/18 14:10:19;;;;;;;3.30;1.90;;;;;;;;;;5045020;28;20053;-68
2021/11/18 14:12:54;;;;;;;5.03;2.28;;;;;;;;;;5040916;28;20059;-65
2021/11/18 14:15:29;;;;;;;3.75;2.15;;;;;;;;;;5046978;28;20083;-65
2021/11/18 14:17:59;;;;;;;4.45;2.10;;;;;;;;;;5056216;28;20048;-64
2021/11/18 14:20:40;;;;;;;3.83;2.17;;;;;;;;;;5048937;28;20489;-65
2021/11/18 14:23:17;;;;;;;5.63;2.15;;;;;;;;;;5053862;28;20045;-66
2021/11/18 14:25:46;;;;;;;4.32;2.30;;;;;;;;;;5048630;28;20052;-66
2021/11/18 14:28:31;;;;;;;3.30;2.13;;;;;;;;;;5041850;28;20472;-65
2021/11/18 14:31:02;;;;;;;6.40;2.42;;;;;;;;;;5048597;28;20057;-65
2021/11/18 14:33:39;;;;;;;3.65;2.00;;;;;;;;;;5044963;28;20055;-66
2021/11/18 14:36:17;;;;;;;3.67;2.10;;;;;;;;;;5053737;28;20067;-63
2021/11/18 14:38:48;;;;;;;4.57;2.40;;;;;;;;;;5051693;28;20432;-68
2021/11/18 14:41:22;;;;;;;5.22;2.30;;;;;;;;;;5044297;28;20053;-64
2021/11/18 14:43:57;;;;;;;3.05;2.30;;;;;;;;;;5053055;28;20052;-64
2021/11/18 14:46:39;;;;;;;4.35;2.22;;;;;;;;;;5046520;28;20534;-65
2021/11/18 14:49:30;;;;;;;5.63;2.72;;;;;;;;;;5052020;28;20048;-64
2021/11/18 14:52:12;;;;;;;7.63;2.33;;;;;;;;;;5044031;28;20123;-65
2021/11/18 14:54:42;;;;;;;3.55;2.17;;;;;;;;;;5056404;28;20048;-65
2021/11/18 14:57:21;;;;;;;5.45;2.45;;;;;;;;;;5060402;28;20064;-66
2021/11/18 14:59:50;;;;;;;6.30;2.42;;;;;;;;;;5053577;28;20045;-67
2021/11/18 15:02:20;;;;;;;3.85;2.40;;;;;;;;;;5047565;28;20075;-66
2021/11/18 15:04:49;;;;;;;5.45;2.95;;;;;;;;;;5045388;28;20053;-68
2021/11/18 15:07:20;;;;;;;4.63;2.67;;;;;;;;;;5047803;28;20061;-66